• Join FlightAware (Why Join?)
  • Login
  • US Flag 
08:16PM EDT


 

Airport Tracker/Info


-or-


 

Live Flight TrackerFlight Track Log ✈ C-GONN ✈ 13-Apr-2013 ✈ CYXC - CYVR

Flight Track Log - Related Links

Times and Time Zones

All times are in EDT time to prevent confusion due to time zone crossing. See the C-GONN flight status page for this flight to view local times or setup timezone preferences in your user account.

Time Position Orientation Groundspeed Altitude Reporting Facility
EDT Latitude Longitude Course Direction KTS MPH feet Rate Location/Type
11:49PM 49.6333 -115.7667 270° West 150 173 10,000  Level Vancouver Center
11:50PM 49.6500 -115.8167 297° West 140 161 11,800 1,800 Climbing Vancouver Center
11:51PM 49.6500 -115.9000 270° West 160 184 13,600 1,800 Climbing Vancouver Center
11:52PM 49.5334 -116.5188 270° West  Level FlightAware Approximate
11:52PM 49.6500 -115.9833 270° West 160 184 15,500  Level Vancouver Center
11:53PM 49.5335 -116.6280 270° West  Level FlightAware Approximate
11:53PM 49.6500 -116.0333 270° West 160 184 16,900  Level Vancouver Center
11:54PM 49.5335 -116.7372 270° West  Level FlightAware Approximate
11:54PM 49.6500 -116.1000 270° West 170 196 18,600  Level Vancouver Center
11:55PM 49.5334 -116.8463 270° West  Level FlightAware Approximate
11:55PM 49.6500 -116.1833 270° West 180 207 19,800  Level Vancouver Center
11:56PM 49.6500 -116.2667 270° West 180 207 21,000 960 Climbing Vancouver Center
11:57PM 49.6500 -116.3333 270° West 190 219 21,800 720 Climbing Vancouver Center
11:58PM 49.6500 -116.4500 270° West 200 230 22,500 720 Climbing Vancouver Center
11:59PM 49.6500 -116.5167 270° West 210 242 23,300 720 Climbing Vancouver Center
12:00AM 49.6500 -116.6167 270° West 210 242 24,000 300 Climbing Vancouver Center
12:01AM 49.6500 -116.7333 270° West 230 265 24,000  Level Vancouver Center
12:02AM 49.6500 -116.8000 270° West 240 276 24,000  Level Vancouver Center
12:03AM 49.6500 -116.9333 270° West 260 299 24,000  Level Vancouver Center
12:04AM 49.6500 -117.0333 270° West 270 311 24,000  Level Vancouver Center
12:05AM 49.6500 -117.1667 270° West 270 311 24,000  Level Vancouver Center
12:06AM 49.6500 -117.2667 270° West 270 311 24,000  Level Vancouver Center
12:07AM 49.6500 -117.4000 270° West 270 311 24,000  Level Vancouver Center
12:08AM 49.6500 -117.5000 270° West 270 311 24,000  Level Vancouver Center
12:09AM 49.6333 -117.6333 259° West 280 322 24,000  Level Vancouver Center
12:10AM 49.6500 -117.7333 284° West 280 322 24,000  Level Vancouver Center
12:11AM 49.6333 -117.8667 259° West 280 322 24,000  Level Vancouver Center
12:12AM 49.6333 -118.0000 270° West 280 322 24,000  Level Vancouver Center
12:13AM 49.6333 -118.1333 270° West 280 322 24,000  Level Vancouver Center
12:14AM 49.6333 -118.2333 270° West 280 322 24,000  Level Vancouver Center
12:15AM 49.6333 -118.3500 270° West 280 322 24,000  Level Vancouver Center
12:16AM 49.6333 -118.4833 270° West 280 322 24,000  Level Vancouver Center
12:17AM 49.6167 -118.5833 256° West 280 322 24,000  Level Vancouver Center
12:18AM 49.6333 -118.7167 281° West 280 322 24,000  Level Vancouver Center
12:19AM 49.6333 -118.8500 270° West 280 322 24,000  Level Vancouver Center
12:20AM 49.6167 -118.9500 256° West 280 322 24,000  Level Vancouver Center
12:21AM 49.6167 -119.0833 270° West 280 322 24,000  Level Vancouver Center
12:22AM 49.6167 -119.2167 270° West 280 322 24,000  Level Vancouver Center
12:23AM 49.6167 -119.3167 270° West 280 322 24,000  Level Vancouver Center
12:24AM 49.6000 -119.4500 259° West 280 322 24,000  Level Vancouver Center
12:26AM 49.5852 -119.6105 262° West  Level Estimated
12:33AM 49.5121 -120.3665 262° West  Level Estimated
12:34AM 49.5012 -120.4743 261° West  Level Estimated
12:35AM 49.4903 -120.5820 261° West  Level Estimated
12:36AM 49.4793 -120.6898 261° West  Level Estimated
12:37AM 49.4681 -120.7974 261° West  Level Estimated
12:38AM 49.4569 -120.9050 261° West  Level Estimated
12:39AM 49.4455 -121.0126 261° West  Level Estimated
12:40AM 49.4341 -121.1201 261° West  Level Estimated
12:41AM 49.4226 -121.2276 261° West  Level Estimated
12:42AM 49.4109 -121.3350 261° West  Level Estimated
12:43AM 49.3992 -121.4424 261° West  Level Estimated
12:44AM 49.3873 -121.5497 260° West  Level Estimated
12:45AM 49.3754 -121.6570 260° West  Level Estimated
12:46AM 49.3633 -121.7642 260° West  Level Estimated
12:47AM 49.3512 -121.8713 260° West  Level Estimated
12:48AM 49.3390 -121.9784 260° West  Level Estimated
12:49AM 49.3266 -122.0855 260° West  Level Estimated
12:50AM 49.3142 -122.1925 260° West  Level Estimated
12:51AM 49.3017 -122.2994 260° West  Level Estimated
12:52AM 49.2890 -122.4063 260° West  Level Estimated
12:53AM 49.2763 -122.5131 260° West  Level Estimated
12:54AM 49.2635 -122.6199 260° West  Level Estimated
12:55AM 49.2505 -122.7266 260° West  Level Estimated
12:56AM 49.2375 -122.8333 259° West  Level Estimated
12:57AM 49.2244 -122.9399 259° West  Level Estimated
12:58AM 49.2112 -123.0464 259° West  Level Estimated
12:59AM 49.1978 -123.1529 259° West  Level Estimated
01:00AM 49.1939 -123.1844 259° West  Level Estimated
01:01AM 49.1939 -123.1844 249° West  Level Estimated
01:02AM 49.1939 -123.1844 249° West  Level Estimated
01:03AM 49.1939 -123.1844 249° West  Level Estimated
01:04AM 49.1939 -123.1844 249° West  Level Estimated
01:05AM 49.1939 -123.1844 249° West  Level Estimated
01:06AM 49.1939 -123.1844 249° West  Level Estimated
01:07AM 49.1939 -123.1844 249° West  Level Estimated
01:08AM 49.1939 -123.1844 249° West  Level Estimated
01:09AM 49.1939 -123.1844 249° West  Level Estimated
01:10AM 49.1939 -123.1844 249° West  Level Estimated
01:11AM 49.1939 -123.1844 249° West  Level Estimated